createdAt,value
2019-04-25T00:02:07.925Z,15.02
2019-04-25T00:04:38.737Z,14.94
2019-04-25T00:07:08.989Z,14.95
2019-04-25T00:09:49.363Z,14.88
2019-04-25T00:12:19.730Z,14.90
2019-04-25T00:14:49.511Z,14.92
2019-04-25T00:17:19.503Z,14.88
2019-04-25T00:19:49.169Z,14.87
2019-04-25T00:22:21.670Z,14.80
2019-04-25T00:24:58.627Z,14.82
2019-04-25T00:27:28.843Z,14.83
2019-04-25T00:29:58.509Z,14.78
2019-04-25T00:32:28.161Z,14.81
2019-04-25T00:34:57.779Z,14.76
2019-04-25T00:37:27.444Z,14.73
2019-04-25T00:39:57.069Z,14.72
2019-04-25T00:42:26.713Z,14.71
2019-04-25T00:44:56.338Z,14.71
2019-04-25T00:47:25.994Z,14.70
2019-04-25T00:49:55.615Z,14.71
2019-04-25T00:52:25.268Z,14.62
2019-04-25T00:54:54.902Z,14.61
2019-04-25T00:57:24.926Z,14.64
2019-04-25T00:59:56.188Z,14.62
2019-04-25T01:02:27.481Z,14.57
2019-04-25T01:04:57.095Z,14.61
2019-04-25T01:07:26.850Z,14.62
2019-04-25T01:09:56.479Z,14.61
2019-04-25T01:12:26.127Z,14.58
2019-04-25T01:14:55.747Z,14.60
2019-04-25T01:17:26.077Z,14.55
2019-04-25T01:19:57.938Z,14.54
2019-04-25T01:22:27.357Z,14.50
2019-04-25T01:24:57.009Z,14.49
2019-04-25T01:27:26.731Z,14.46
2019-04-25T01:29:56.463Z,14.46
2019-04-25T01:32:27.715Z,14.42
2019-04-25T01:35:05.026Z,14.40
2019-04-25T01:37:36.291Z,14.39
2019-04-25T01:40:24.240Z,14.36
2019-04-25T01:43:08.155Z,14.30
2019-04-25T01:45:38.093Z,14.28
2019-04-25T01:48:07.957Z,14.28
2019-04-25T01:50:38.145Z,14.25
2019-04-25T01:53:07.772Z,14.30
2019-04-25T01:55:37.494Z,14.24
2019-04-25T01:58:07.131Z,14.14
2019-04-25T02:00:38.502Z,14.16
2019-04-25T02:03:08.294Z,14.19
2019-04-25T02:05:38.099Z,14.15
2019-04-25T02:08:07.735Z,14.13
2019-04-25T02:10:37.401Z,14.05
2019-04-25T02:13:08.669Z,14.06
2019-04-25T02:15:38.402Z,14.05
2019-04-25T02:18:08.877Z,14.04
2019-04-25T02:20:38.605Z,13.99
2019-04-25T02:23:08.225Z,13.99
2019-04-25T02:25:38.167Z,13.98
2019-04-25T02:28:07.785Z,13.97
2019-04-25T02:30:37.692Z,13.90
2019-04-25T02:33:09.253Z,13.83
2019-04-25T02:35:42.772Z,13.83
2019-04-25T02:38:10.309Z,13.80
2019-04-25T02:40:40.162Z,13.79
2019-04-25T02:43:10.346Z,13.75
2019-04-25T02:45:47.589Z,13.73
2019-04-25T02:48:36.819Z,13.80
2019-04-25T02:51:17.265Z,13.79
2019-04-25T02:53:59.816Z,13.80
2019-04-25T02:56:34.265Z,13.83
2019-04-25T02:59:00.777Z,13.86
2019-04-25T03:01:30.617Z,13.84
2019-04-25T03:04:00.959Z,13.82
2019-04-25T03:06:30.757Z,13.82
2019-04-25T03:09:01.662Z,13.69
2019-04-25T03:11:31.608Z,13.61
2019-04-25T03:14:02.093Z,13.59
2019-04-25T03:16:31.817Z,13.46
2019-04-25T03:19:14.906Z,13.35
2019-04-25T03:21:49.138Z,13.34
2019-04-25T03:24:18.812Z,13.33
2019-04-25T03:26:48.553Z,13.32
2019-04-25T03:29:18.213Z,13.30
2019-04-25T03:31:47.912Z,13.30
2019-04-25T03:34:20.560Z,13.25
2019-04-25T03:36:48.902Z,13.22
2019-04-25T03:39:18.562Z,13.19
2019-04-25T03:41:48.191Z,13.15
2019-04-25T03:44:17.842Z,13.07
2019-04-25T03:46:47.464Z,12.97
2019-04-25T03:49:17.115Z,12.90
2019-04-25T03:51:46.735Z,12.89
2019-04-25T03:54:16.392Z,12.87
2019-04-25T03:56:53.629Z,12.86
2019-04-25T03:59:17.364Z,12.86
2019-04-25T04:01:46.984Z,12.88
2019-04-25T04:04:16.659Z,12.85
2019-04-25T04:06:46.302Z,12.79
2019-04-25T04:09:15.956Z,12.75
2019-04-25T04:11:45.589Z,12.69
2019-04-25T04:14:15.763Z,12.71
2019-04-25T04:16:47.101Z,12.71
2019-04-25T04:19:16.757Z,12.69
2019-04-25T04:21:48.026Z,12.68
2019-04-25T04:24:19.328Z,12.68
2019-04-25T04:27:01.597Z,12.71
2019-04-25T04:29:25.084Z,12.77
2019-04-25T04:31:54.407Z,12.76
2019-04-25T04:34:24.128Z,12.86
2019-04-25T04:36:53.802Z,12.85
2019-04-25T04:39:23.601Z,12.92
2019-04-25T04:41:53.551Z,12.96
2019-04-25T04:44:24.607Z,13.05
2019-04-25T04:46:54.254Z,13.16
2019-04-25T04:49:23.913Z,13.24
2019-04-25T04:51:54.134Z,13.36
2019-04-25T04:54:23.910Z,13.52
2019-04-25T04:56:53.920Z,13.58
2019-04-25T04:59:24.842Z,13.70
2019-04-25T05:01:56.150Z,13.82
2019-04-25T05:04:27.433Z,13.96
2019-04-25T05:07:04.666Z,14.04
2019-04-25T05:09:35.388Z,14.16
2019-04-25T05:12:06.776Z,14.32
2019-04-25T05:14:36.515Z,14.36
2019-04-25T05:17:10.247Z,14.44
2019-04-25T05:19:40.136Z,14.47
2019-04-25T05:22:10.243Z,14.60
2019-04-25T05:24:40.070Z,14.64
2019-04-25T05:27:10.197Z,14.66
2019-04-25T05:29:39.826Z,14.74
2019-04-25T05:32:09.515Z,14.80
2019-04-25T05:34:39.142Z,14.87
2019-04-25T05:37:09.565Z,14.92
2019-04-25T05:39:39.194Z,15.01
2019-04-25T05:42:10.962Z,15.11
2019-04-25T05:44:41.800Z,15.25
2019-04-25T05:47:11.573Z,15.32
2019-04-25T05:49:41.837Z,15.43
2019-04-25T05:52:13.885Z,15.59
2019-04-25T05:54:44.348Z,15.69
2019-04-25T05:57:14.032Z,15.76
2019-04-25T05:59:43.733Z,15.80
2019-04-25T06:02:13.951Z,15.79
2019-04-25T06:04:43.766Z,15.88
2019-04-25T06:07:14.465Z,15.94
2019-04-25T06:09:46.179Z,16.04
2019-04-25T06:12:20.419Z,16.11
2019-04-25T06:14:50.080Z,16.18
2019-04-25T06:17:30.133Z,16.26
2019-04-25T06:20:04.353Z,16.40
2019-04-25T06:22:49.499Z,16.52
2019-04-25T06:25:21.836Z,16.59
2019-04-25T06:27:57.224Z,16.68
2019-04-25T06:30:27.236Z,16.68
2019-04-25T06:32:56.865Z,16.73
2019-04-25T06:35:27.554Z,16.84
2019-04-25T06:37:57.247Z,16.95
2019-04-25T06:40:29.735Z,17.01
2019-04-25T06:42:58.579Z,17.15
2019-04-25T06:45:46.446Z,17.18
2019-04-25T06:48:17.705Z,17.17
2019-04-25T06:50:47.365Z,17.23
2019-04-25T06:53:16.985Z,17.24
2019-04-25T06:55:46.651Z,17.35
2019-04-25T06:58:16.275Z,17.48
2019-04-25T07:00:58.093Z,17.53
2019-04-25T07:03:17.461Z,17.57
2019-04-25T07:05:47.118Z,17.58
2019-04-25T07:08:16.740Z,17.58
2019-04-25T07:10:46.397Z,17.63
2019-04-25T07:13:16.023Z,17.71
2019-04-25T07:15:45.879Z,17.79
2019-04-25T07:18:15.563Z,17.78
2019-04-25T07:20:45.448Z,17.91
2019-04-25T07:23:15.025Z,17.92
2019-04-25T07:25:46.321Z,17.88
2019-04-25T07:28:31.126Z,18.00
2019-04-25T07:31:03.598Z,18.10
2019-04-25T07:33:35.864Z,18.19
2019-04-25T07:36:05.598Z,18.28
2019-04-25T07:38:35.219Z,18.36
2019-04-25T07:41:05.209Z,18.45
2019-04-25T07:43:35.443Z,18.44
2019-04-25T07:46:06.237Z,18.57
2019-04-25T07:48:37.139Z,18.68
2019-04-25T07:51:07.276Z,18.78
2019-04-25T07:53:37.571Z,18.84
2019-04-25T07:56:07.238Z,18.98
2019-04-25T07:58:49.367Z,19.11
2019-04-25T08:01:14.084Z,19.17
2019-04-25T08:03:53.870Z,19.29
2019-04-25T08:06:25.809Z,19.32
2019-04-25T08:08:55.507Z,19.41
2019-04-25T08:11:25.125Z,19.53
2019-04-25T08:14:11.094Z,19.60
2019-04-25T08:16:44.201Z,19.61
2019-04-25T08:19:15.350Z,19.80
2019-04-25T08:21:45.352Z,19.77
2019-04-25T08:24:15.558Z,19.90
2019-04-25T08:26:45.184Z,20.06
2019-04-25T08:29:16.773Z,20.31
2019-04-25T08:31:46.570Z,20.44
2019-04-25T08:34:16.219Z,20.53
2019-04-25T08:36:45.850Z,20.46
2019-04-25T08:39:15.515Z,20.58
2019-04-25T08:41:45.722Z,20.87
2019-04-25T08:44:15.570Z,20.91
2019-04-25T08:46:48.559Z,20.95
2019-04-25T08:49:26.643Z,21.21
2019-04-25T08:51:57.543Z,21.35
2019-04-25T08:54:41.104Z,21.31
2019-04-25T08:57:10.469Z,21.47
2019-04-25T08:59:56.313Z,21.70
2019-04-25T09:02:36.112Z,21.98
2019-04-25T09:05:18.891Z,22.33
2019-04-25T09:07:48.518Z,22.41
2019-04-25T09:10:18.238Z,22.69
2019-04-25T09:12:47.875Z,22.53
2019-04-25T09:15:17.708Z,22.77
2019-04-25T09:17:47.333Z,22.97
2019-04-25T09:20:17.631Z,23.15
2019-04-25T09:22:47.271Z,23.21
2019-04-25T09:25:17.341Z,23.49
2019-04-25T09:27:47.093Z,23.72
2019-04-25T09:30:17.008Z,23.53
2019-04-25T09:32:47.847Z,23.58
2019-04-25T09:35:20.105Z,23.89
2019-04-25T09:37:49.104Z,24.06
2019-04-25T09:40:18.863Z,24.31
2019-04-25T09:42:48.513Z,24.41
2019-04-25T09:45:30.619Z,24.88
2019-04-25T09:48:17.064Z,25.13
2019-04-25T09:50:48.351Z,25.11
2019-04-25T09:53:23.167Z,25.45
2019-04-25T09:56:00.603Z,25.79
2019-04-25T09:58:48.555Z,26.30
2019-04-25T10:01:19.190Z,26.74
2019-04-25T10:03:48.850Z,27.25
2019-04-25T10:06:19.136Z,27.53
2019-04-25T10:08:48.858Z,27.67
2019-04-25T10:11:18.620Z,27.67
2019-04-25T10:13:54.393Z,28.31
2019-04-25T10:16:24.108Z,28.40
2019-04-25T10:18:53.763Z,28.60
2019-04-25T10:21:24.018Z,29.25
2019-04-25T10:23:53.693Z,29.82
2019-04-25T10:26:23.637Z,30.32
2019-04-25T10:28:56.010Z,30.11
2019-04-25T10:31:25.721Z,29.35
2019-04-25T10:33:55.439Z,29.82
2019-04-25T10:36:25.139Z,29.69
2019-04-25T10:39:07.519Z,29.80
2019-04-25T10:41:26.118Z,30.00
2019-04-25T10:43:56.195Z,30.55
2019-04-25T10:46:25.872Z,30.88
2019-04-25T10:48:56.148Z,30.59
2019-04-25T10:51:26.025Z,30.76
2019-04-25T10:53:55.857Z,31.32
2019-04-25T10:56:25.468Z,31.40
2019-04-25T10:58:55.150Z,31.24
2019-04-25T11:01:24.767Z,31.74
2019-04-25T11:03:56.359Z,32.01
2019-04-25T11:06:27.655Z,32.17
2019-04-25T11:08:57.314Z,32.50
2019-04-25T11:11:27.098Z,32.36
2019-04-25T11:13:58.158Z,32.67
2019-04-25T11:16:27.882Z,32.74
2019-04-25T11:18:57.512Z,32.34
2019-04-25T11:21:27.168Z,31.15
2019-04-25T11:23:56.794Z,30.87
2019-04-25T11:26:26.890Z,31.33
2019-04-25T11:28:56.614Z,31.85
2019-04-25T11:31:27.900Z,31.53
2019-04-25T11:33:57.529Z,31.50
2019-04-25T11:36:27.184Z,30.90
2019-04-25T11:38:58.445Z,30.81
2019-04-25T11:41:28.106Z,31.01
2019-04-25T11:44:00.367Z,31.45
2019-04-25T11:46:29.099Z,31.64
2019-04-25T11:48:58.795Z,31.81
2019-04-25T11:51:28.454Z,31.48
2019-04-25T11:53:58.083Z,31.21
2019-04-25T11:56:28.068Z,31.19
2019-04-25T11:58:57.695Z,30.68
2019-04-25T12:01:27.519Z,30.13
2019-04-25T12:03:57.215Z,29.58
2019-04-25T12:06:26.863Z,29.67
2019-04-25T12:08:56.524Z,30.13
2019-04-25T12:11:26.191Z,30.57
2019-04-25T12:13:55.862Z,31.16
2019-04-25T12:16:25.551Z,31.02
2019-04-25T12:18:56.447Z,30.94
2019-04-25T12:21:26.122Z,30.42
2019-04-25T12:23:55.780Z,30.14
2019-04-25T12:26:26.264Z,29.65
2019-04-25T12:28:56.569Z,29.66
2019-04-25T12:31:26.546Z,29.44
2019-04-25T12:33:57.445Z,29.33
2019-04-25T12:36:27.365Z,29.44
2019-04-25T12:38:57.030Z,28.99
2019-04-25T12:41:26.650Z,28.87
2019-04-25T12:43:58.008Z,27.99
2019-04-25T12:46:29.279Z,28.32
2019-04-25T12:48:58.938Z,28.33
2019-04-25T12:51:28.558Z,28.11
2019-04-25T12:53:58.221Z,28.25
2019-04-25T12:56:27.846Z,28.07
2019-04-25T12:58:57.496Z,28.27
2019-04-25T13:01:27.122Z,28.24
2019-04-25T13:03:56.772Z,28.03
2019-04-25T13:06:26.398Z,27.79
2019-04-25T13:08:56.054Z,27.74
2019-04-25T13:11:25.682Z,27.83
2019-04-25T13:13:55.341Z,28.00
2019-04-25T13:16:24.966Z,28.05
2019-04-25T13:18:55.581Z,27.95
2019-04-25T13:21:25.230Z,27.88
2019-04-25T13:23:55.719Z,27.91
2019-04-25T13:26:27.873Z,28.14
2019-04-25T13:29:15.353Z,28.22
2019-04-25T13:31:58.945Z,28.37
2019-04-25T13:34:36.407Z,28.09
2019-04-25T13:37:06.251Z,28.29
2019-04-25T13:39:35.989Z,28.31
2019-04-25T13:42:06.830Z,27.82
2019-04-25T13:44:36.741Z,27.99
2019-04-25T13:47:07.005Z,28.06
2019-04-25T13:49:37.208Z,28.00
2019-04-25T13:52:08.474Z,28.01
2019-04-25T13:54:38.145Z,28.18
2019-04-25T13:57:08.039Z,28.10
2019-04-25T13:59:37.703Z,28.15
2019-04-25T14:02:07.730Z,28.08
2019-04-25T14:04:37.400Z,27.96
2019-04-25T14:07:07.057Z,27.99
2019-04-25T14:09:36.689Z,28.00
2019-04-25T14:12:06.603Z,28.29
2019-04-25T14:14:36.930Z,28.45
2019-04-25T14:17:24.782Z,28.66
2019-04-25T14:20:04.905Z,28.81
2019-04-25T14:22:34.625Z,28.90
2019-04-25T14:25:05.898Z,28.96
2019-04-25T14:27:35.627Z,28.88
2019-04-25T14:30:09.238Z,28.74
2019-04-25T14:32:38.996Z,28.65
2019-04-25T14:35:08.872Z,28.61
2019-04-25T14:37:39.741Z,28.63
2019-04-25T14:40:10.149Z,28.37
2019-04-25T14:42:39.804Z,28.06
2019-04-25T14:45:09.929Z,27.99
2019-04-25T14:47:39.933Z,27.99
2019-04-25T14:50:09.791Z,28.04
2019-04-25T14:52:40.761Z,28.00
2019-04-25T14:55:15.134Z,28.03
2019-04-25T14:57:44.785Z,28.02
2019-04-25T15:00:32.551Z,27.99
2019-04-25T15:03:02.238Z,28.08
2019-04-25T15:05:31.859Z,28.12
2019-04-25T15:08:01.529Z,28.16
2019-04-25T15:10:31.156Z,28.21
2019-04-25T15:13:00.817Z,28.00
2019-04-25T15:15:30.434Z,27.85
2019-04-25T15:18:00.089Z,27.94
2019-04-25T15:20:30.183Z,28.00
2019-04-25T15:22:59.839Z,27.98
2019-04-25T15:25:29.703Z,27.72
2019-04-25T15:27:59.399Z,27.76
2019-04-25T15:30:30.673Z,27.65
2019-04-25T15:33:00.321Z,27.68
2019-04-25T15:35:34.583Z,27.74
2019-04-25T15:38:06.119Z,27.82
2019-04-25T15:40:44.111Z,27.78
2019-04-25T15:43:15.666Z,27.81
2019-04-25T15:45:46.930Z,27.85
2019-04-25T15:48:16.587Z,27.79
2019-04-25T15:50:46.215Z,27.90
2019-04-25T15:53:15.861Z,27.94
2019-04-25T15:55:45.670Z,27.98
2019-04-25T15:58:15.300Z,27.94
2019-04-25T16:00:45.025Z,28.05
2019-04-25T16:03:14.956Z,27.98
2019-04-25T16:05:44.613Z,27.74
2019-04-25T16:08:14.332Z,27.78
2019-04-25T16:10:44.161Z,27.66
2019-04-25T16:13:13.811Z,27.93
2019-04-25T16:15:43.793Z,28.96
2019-04-25T16:18:14.112Z,29.56
2019-04-25T16:20:44.267Z,30.55
2019-04-25T16:23:14.158Z,30.73
2019-04-25T16:25:44.166Z,30.76
2019-04-25T16:28:14.452Z,31.19
2019-04-25T16:30:44.442Z,31.54
2019-04-25T16:33:14.048Z,31.70
2019-04-25T16:35:43.708Z,31.45
2019-04-25T16:38:14.410Z,31.23
2019-04-25T16:40:44.186Z,30.07
2019-04-25T16:43:15.659Z,29.30
2019-04-25T16:45:45.482Z,28.66
2019-04-25T16:48:15.875Z,28.16
2019-04-25T16:50:45.629Z,27.67
2019-04-25T16:53:16.697Z,27.46
2019-04-25T16:55:46.935Z,27.31
2019-04-25T16:58:16.848Z,27.10
2019-04-25T17:00:51.449Z,27.20
2019-04-25T17:03:22.143Z,27.03
2019-04-25T17:05:51.912Z,26.80
2019-04-25T17:08:21.603Z,26.59
2019-04-25T17:10:51.342Z,26.32
2019-04-25T17:13:21.054Z,26.18
2019-04-25T17:15:55.036Z,26.07
2019-04-25T17:18:32.000Z,25.94
2019-04-25T17:21:06.272Z,25.81
2019-04-25T17:23:37.008Z,25.74
2019-04-25T17:26:07.089Z,25.66
2019-04-25T17:28:39.158Z,25.56
2019-04-25T17:31:15.953Z,25.46
2019-04-25T17:34:03.253Z,25.37
2019-04-25T17:36:35.752Z,25.25
2019-04-25T17:39:08.493Z,25.00
2019-04-25T17:41:38.429Z,24.70
2019-04-25T17:44:08.073Z,24.68
2019-04-25T17:46:37.741Z,24.60
2019-04-25T17:49:07.370Z,24.15
2019-04-25T17:51:37.039Z,24.05
2019-04-25T17:54:06.667Z,24.05
2019-04-25T17:56:36.433Z,23.81
2019-04-25T17:59:06.055Z,23.64
2019-04-25T18:01:35.995Z,23.41
2019-04-25T18:04:05.905Z,23.17
2019-04-25T18:06:35.691Z,22.96
2019-04-25T18:09:07.302Z,22.96
2019-04-25T18:11:38.025Z,22.78
2019-04-25T18:14:07.760Z,22.67
2019-04-25T18:16:40.329Z,22.57
2019-04-25T18:19:17.955Z,22.34
2019-04-25T18:21:47.577Z,22.29
2019-04-25T18:24:18.882Z,22.17
2019-04-25T18:26:50.203Z,22.03
2019-04-25T18:29:21.518Z,21.86
2019-04-25T18:31:51.154Z,21.73
2019-04-25T18:34:22.468Z,21.62
2019-04-25T18:36:56.757Z,21.51
2019-04-25T18:39:44.320Z,21.44
2019-04-25T18:42:18.743Z,21.13
2019-04-25T18:44:49.945Z,20.97
2019-04-25T18:47:19.584Z,20.87
2019-04-25T18:49:49.247Z,20.76
2019-04-25T18:52:32.280Z,20.72
2019-04-25T18:55:03.599Z,20.58
2019-04-25T18:57:45.191Z,20.52
2019-04-25T19:00:29.084Z,20.39
2019-04-25T19:03:22.666Z,20.22
2019-04-25T19:05:52.629Z,20.05
2019-04-25T19:08:22.260Z,19.99
2019-04-25T19:10:51.971Z,19.93
2019-04-25T19:13:21.563Z,19.82
2019-04-25T19:15:51.548Z,19.77
2019-04-25T19:18:21.155Z,19.74
2019-04-25T19:20:50.817Z,19.70
2019-04-25T19:23:20.458Z,19.60
2019-04-25T19:25:50.175Z,19.47
2019-04-25T19:28:19.797Z,19.37
2019-04-25T19:30:49.672Z,19.28
2019-04-25T19:33:19.303Z,19.24
2019-04-25T19:35:51.933Z,19.22
2019-04-25T19:38:21.649Z,19.10
2019-04-25T19:40:55.868Z,19.00
2019-04-25T19:43:27.779Z,18.89
2019-04-25T19:45:57.414Z,18.81
2019-04-25T19:48:28.530Z,18.75
2019-04-25T19:50:58.169Z,18.69
2019-04-25T19:53:27.848Z,18.66
2019-04-25T19:55:57.486Z,18.63
2019-04-25T19:58:27.169Z,18.64
2019-04-25T20:00:56.808Z,18.66
2019-04-25T20:03:28.109Z,18.62
2019-04-25T20:05:59.372Z,18.56
2019-04-25T20:08:39.472Z,18.52
2019-04-25T20:11:13.826Z,18.42
2019-04-25T20:13:44.385Z,18.41
2019-04-25T20:16:14.931Z,18.32
2019-04-25T20:18:45.612Z,18.30
2019-04-25T20:21:15.307Z,18.30
2019-04-25T20:23:46.360Z,18.26
2019-04-25T20:26:16.383Z,18.19
2019-04-25T20:28:46.222Z,18.12
2019-04-25T20:31:16.104Z,18.09
2019-04-25T20:33:46.816Z,18.10
2019-04-25T20:36:17.923Z,18.05
2019-04-25T20:38:47.828Z,17.94
2019-04-25T20:41:17.558Z,17.78
2019-04-25T20:43:48.805Z,17.78
2019-04-25T20:46:18.541Z,17.78
2019-04-25T20:48:50.175Z,17.75
2019-04-25T20:51:19.801Z,17.67
2019-04-25T20:53:49.434Z,17.66
2019-04-25T20:56:19.100Z,17.63
2019-04-25T20:58:49.113Z,17.60
2019-04-25T21:01:18.767Z,17.53
2019-04-25T21:03:48.616Z,17.36
2019-04-25T21:06:19.981Z,17.38
2019-04-25T21:08:50.110Z,17.36
2019-04-25T21:11:20.067Z,17.32
2019-04-25T21:14:03.149Z,17.32
2019-04-25T21:16:34.532Z,17.29
2019-04-25T21:19:11.312Z,17.25
2019-04-25T21:21:41.047Z,17.22
2019-04-25T21:24:10.678Z,17.11
2019-04-25T21:26:40.344Z,17.08
2019-04-25T21:29:10.052Z,17.06
2019-04-25T21:31:39.784Z,17.04
2019-04-25T21:34:09.419Z,17.00
2019-04-25T21:36:39.350Z,17.02
2019-04-25T21:39:10.620Z,16.96
2019-04-25T21:41:45.540Z,16.98
2019-04-25T21:44:17.673Z,17.02
2019-04-25T21:46:46.801Z,16.97
2019-04-25T21:49:16.604Z,16.96
2019-04-25T21:51:46.301Z,16.96
2019-04-25T21:54:16.123Z,16.96
2019-04-25T21:56:46.281Z,16.91
2019-04-25T21:59:16.116Z,16.88
2019-04-25T22:01:46.453Z,16.84
2019-04-25T22:04:16.185Z,16.70
2019-04-25T22:06:46.266Z,16.65
2019-04-25T22:09:22.886Z,16.52
2019-04-25T22:11:53.063Z,16.41
2019-04-25T22:14:23.014Z,16.44
2019-04-25T22:16:52.828Z,16.38
2019-04-25T22:19:22.762Z,16.38
2019-04-25T22:21:52.680Z,16.38
2019-04-25T22:24:22.511Z,16.34
2019-04-25T22:26:54.089Z,16.35
2019-04-25T22:29:23.945Z,16.33
2019-04-25T22:32:01.532Z,16.30
2019-04-25T22:34:51.321Z,16.36
2019-04-25T22:37:10.373Z,16.37
2019-04-25T22:39:40.313Z,16.34
2019-04-25T22:42:09.946Z,16.25
2019-04-25T22:44:40.349Z,16.22
2019-04-25T22:47:10.021Z,16.16
2019-04-25T22:49:39.665Z,16.08
2019-04-25T22:52:09.576Z,16.16
2019-04-25T22:54:39.413Z,16.22
2019-04-25T22:57:09.049Z,16.24
2019-04-25T22:59:38.895Z,16.25
2019-04-25T23:02:22.309Z,16.24
2019-04-25T23:05:04.731Z,16.20
2019-04-25T23:07:25.315Z,16.22
2019-04-25T23:09:55.360Z,16.18
2019-04-25T23:12:25.278Z,16.16
2019-04-25T23:14:55.050Z,16.14
2019-04-25T23:17:24.685Z,16.13
2019-04-25T23:19:54.631Z,16.15
2019-04-25T23:22:24.361Z,16.17
2019-04-25T23:25:01.754Z,16.09
2019-04-25T23:27:39.165Z,16.05
2019-04-25T23:30:10.694Z,16.00
2019-04-25T23:32:41.020Z,15.98
2019-04-25T23:35:24.335Z,15.99
2019-04-25T23:37:42.076Z,15.96
2019-04-25T23:40:13.648Z,15.96
2019-04-25T23:42:43.326Z,15.93
2019-04-25T23:45:14.606Z,15.92
2019-04-25T23:47:44.323Z,15.85
2019-04-25T23:50:14.842Z,15.80
2019-04-25T23:52:44.504Z,15.77
2019-04-25T23:55:15.196Z,15.74
2019-04-25T23:57:44.851Z,15.73
